sim
Sign-in with your pilot id or email,
or register
Callsign
Passwort

Schedule Details

Flight Number: OEF9156
Departure: Toronto Pearson International Airport (CYYZ) at 15:05
Arrival: Los Angeles International Airport (KLAX) at 19:50

Weather Information
Getting current METAR information for CYYZ 310600Z 28009KT 15SM SKC 08/04 A3012 RMK SLP204
Getting current METAR information for KLAX 310553Z 26011KT 10SM SCT220 17/12 A2994 RMK AO2 SLP137 T01670122 10194 20167 50000

Schedule Frequency

Route Map